Time;durP1;ratioP1;P1;durP2;ratioP2;P2;SDS_P1;SDS_P2;PMS_P1;PMS_P2;Temp;Humidity;BMP_temperature;BMP_pressure;BME280_temperature;BME280_humidity;BME280_pressure;Samples;Min_cycle;Max_cycle;Signal;HPM_P1;HPM_P2
2021/12/13 00:01:35;;;;;;;5.32;2.88;;;4.00;99.90;;;;;;5075569;28;20028;-68
2021/12/13 00:04:18;;;;;;;4.40;2.70;;;4.00;99.90;;;;;;5057604;28;20028;-68
2021/12/13 00:06:50;;;;;;;4.55;2.50;;;4.00;99.90;;;;;;5057342;28;20021;-68
2021/12/13 00:09:22;;;;;;;3.47;2.08;;;4.00;99.90;;;;;;5057172;28;20027;-68
2021/12/13 00:11:52;;;;;;;6.15;2.72;;;4.10;99.90;;;;;;5057269;28;20029;-68
2021/12/13 00:14:23;;;;;;;4.47;2.35;;;4.10;99.90;;;;;;5057144;28;20421;-68
2021/12/13 00:17:03;;;;;;;3.83;2.15;;;4.10;99.90;;;;;;5057332;28;20061;-68
2021/12/13 00:19:50;;;;;;;5.00;1.83;;;4.10;99.90;;;;;;5075398;28;20029;-68
2021/12/13 00:22:24;;;;;;;4.82;2.85;;;4.20;99.90;;;;;;5075147;28;20028;-68
2021/12/13 00:24:51;;;;;;;4.80;2.67;;;4.30;99.90;;;;;;5075111;28;20033;-68
2021/12/13 00:27:27;;;;;;;6.05;2.75;;;4.30;99.90;;;;;;5074878;28;20031;-68
2021/12/13 00:30:07;;;;;;;4.68;2.42;;;4.40;99.90;;;;;;5074494;28;20037;-68
2021/12/13 00:32:58;;;;;;;5.07;2.40;;;4.40;99.90;;;;;;5074537;28;20083;-68
2021/12/13 00:35:32;;;;;;;3.40;2.42;;;4.50;99.90;;;;;;5074455;28;20033;-68
2021/12/13 00:38:04;;;;;;;3.72;2.63;;;4.50;99.90;;;;;;5074398;28;20033;-68
2021/12/13 00:40:33;;;;;;;3.85;2.33;;;4.50;99.90;;;;;;5056862;28;20020;-68
2021/12/13 00:43:09;;;;;;;3.40;2.28;;;4.50;99.90;;;;;;5074538;28;20123;-68
2021/12/13 00:45:40;;;;;;;5.18;2.60;;;4.50;99.90;;;;;;5074723;28;20036;-68
2021/12/13 00:48:08;;;;;;;5.63;2.95;;;4.50;99.90;;;;;;5074595;28;20039;-67
2021/12/13 00:51:11;;;;;;;5.10;3.00;;;4.50;99.90;;;;;;5074474;28;20056;-68
2021/12/13 00:53:40;;;;;;;5.07;2.60;;;4.50;99.90;;;;;;5040830;28;20375;-68
2021/12/13 00:56:25;;;;;;;;;;;4.50;99.90;;;;;;5074769;28;20051;-68
2021/12/13 00:58:51;;;;;;;4.93;2.60;;;4.50;99.90;;;;;;5074379;28;19911;-68
2021/12/13 01:01:17;;;;;;;5.32;2.88;;;4.50;99.90;;;;;;5074456;28;20468;-68
2021/12/13 01:03:49;;;;;;;4.30;2.20;;;4.50;99.90;;;;;;5075408;28;20033;-68
2021/12/13 01:06:53;;;;;;;4.30;2.80;;;4.50;99.90;;;;;;5076096;28;20439;-68
2021/12/13 01:09:56;;;;;;;7.18;3.28;;;4.50;99.90;;;;;;5075923;28;20050;-68
2021/12/13 01:12:23;;;;;;;5.20;2.90;;;4.50;99.90;;;;;;5073878;28;20055;-68
2021/12/13 01:15:29;;;;;;;5.38;3.35;;;4.50;99.90;;;;;;5074154;28;20052;-68
2021/12/13 01:18:16;;;;;;;6.63;3.17;;;4.50;99.90;;;;;;5057329;28;20036;-68
2021/12/13 01:21:03;;;;;;;5.55;2.90;;;4.50;99.90;;;;;;5055548;28;20025;-68
2021/12/13 01:23:45;;;;;;;5.72;2.90;;;4.50;99.90;;;;;;5056139;28;20051;-68
2021/12/13 01:28:47;;;;;;;4.75;3.03;;;4.50;99.90;;;;;;5073926;28;20025;-68
2021/12/13 01:31:24;;;;;;;6.63;3.10;;;4.60;99.90;;;;;;5072637;28;20080;-67
2021/12/13 01:33:51;;;;;;;3.85;2.65;;;4.60;99.90;;;;;;5093016;28;20031;-67
2021/12/13 01:36:24;;;;;;;5.68;3.50;;;4.60;99.90;;;;;;5092957;28;20110;-68
2021/12/13 01:38:59;;;;;;;5.13;3.38;;;4.60;99.90;;;;;;5094070;28;20077;-67
2021/12/13 01:41:39;;;;;;;4.10;3.20;;;4.60;99.90;;;;;;5093164;28;20091;-68
2021/12/13 01:44:10;;;;;;;4.82;3.47;;;4.60;99.90;;;;;;5093992;28;20042;-68
2021/12/13 01:46:41;;;;;;;5.45;2.90;;;4.50;99.90;;;;;;5092670;28;20024;-68
2021/12/13 01:49:08;;;;;;;4.32;2.80;;;4.50;99.90;;;;;;5093954;28;20028;-67
2021/12/13 01:51:35;;;;;;;5.57;2.78;;;4.50;99.90;;;;;;5093630;28;20028;-67
2021/12/13 01:54:06;;;;;;;5.82;2.97;;;4.50;99.90;;;;;;5092823;28;20028;-67
2021/12/13 01:59:05;;;;;;;7.33;3.60;;;4.50;99.90;;;;;;5093810;28;20032;-68
2021/12/13 02:01:31;;;;;;;4.07;2.78;;;4.60;99.90;;;;;;5092459;28;20278;-68
2021/12/13 02:04:02;;;;;;;3.90;2.45;;;4.60;99.90;;;;;;5092475;28;20032;-68
2021/12/13 02:06:35;;;;;;;6.53;3.00;;;4.50;99.90;;;;;;5094003;28;20016;-68
2021/12/13 02:09:07;;;;;;;4.35;2.88;;;4.60;99.90;;;;;;5093714;28;20028;-68
2021/12/13 02:11:34;;;;;;;4.80;2.88;;;4.60;99.90;;;;;;5093747;28;20024;-68
2021/12/13 02:14:10;;;;;;;3.72;2.47;;;4.60;99.90;;;;;;5093650;28;20091;-67
2021/12/13 02:16:59;;;;;;;4.65;2.58;;;4.50;99.90;;;;;;5093998;28;20016;-68
2021/12/13 02:20:03;;;;;;;5.65;3.53;;;4.50;99.90;;;;;;5092781;28;20067;-67
2021/12/13 02:22:31;;;;;;;4.00;2.30;;;4.50;99.90;;;;;;5093524;28;20111;-67
2021/12/13 02:25:07;;;;;;;3.60;2.47;;;4.50;99.90;;;;;;5093701;28;20032;-67
2021/12/13 02:27:36;;;;;;;3.08;2.10;;;4.60;99.90;;;;;;5092308;28;20032;-67
2021/12/13 02:30:14;;;;;;;3.75;2.30;;;4.50;99.90;;;;;;5092758;28;20032;-68
2021/12/13 02:32:42;;;;;;;2.60;2.13;;;4.50;99.90;;;;;;5073894;28;20499;-67
2021/12/13 02:35:10;;;;;;;3.30;2.08;;;4.60;99.90;;;;;;5076995;28;20376;-68
2021/12/13 02:37:38;;;;;;;2.47;2.03;;;4.60;99.90;;;;;;5076954;28;20024;-67
2021/12/13 02:40:11;;;;;;;3.00;1.85;;;4.50;99.90;;;;;;5059253;28;20024;-67
2021/12/13 02:42:38;;;;;;;1.67;1.48;;;4.50;99.90;;;;;;5076695;28;20115;-68
2021/12/13 02:45:18;;;;;;;3.47;1.35;;;4.40;99.90;;;;;;5058864;28;20036;-67
2021/12/13 02:47:58;;;;;;;1.83;1.30;;;4.40;99.90;;;;;;5077316;28;20031;-67
2021/12/13 02:50:50;;;;;;;1.95;1.00;;;4.40;99.90;;;;;;5058788;28;20020;-67
2021/12/13 02:53:20;;;;;;;2.28;1.50;;;4.30;99.90;;;;;;5072063;28;20483;-67
2021/12/13 02:55:46;;;;;;;0.60;0.60;;;4.20;99.90;;;;;;5058690;28;20025;-67
2021/12/13 02:58:15;;;;;;;1.27;0.90;;;4.20;99.90;;;;;;5076395;28;20047;-68
2021/12/13 03:00:53;;;;;;;;;;;4.10;99.90;;;;;;5077442;28;20078;-67
2021/12/13 03:03:23;;;;;;;1.17;0.82;;;4.10;99.90;;;;;;5076482;28;20343;-68
2021/12/13 03:05:54;;;;;;;1.52;0.75;;;4.10;99.90;;;;;;5058854;28;20074;-68
2021/12/13 03:08:36;;;;;;;1.70;1.15;;;4.10;99.90;;;;;;5076226;28;20031;-68
2021/12/13 03:11:08;;;;;;;0.93;0.77;;;4.00;99.90;;;;;;5076578;28;20090;-68
2021/12/13 03:13:34;;;;;;;1.40;1.30;;;4.00;99.90;;;;;;5076416;28;20052;-68
2021/12/13 03:16:14;;;;;;;0.73;0.73;;;4.00;99.90;;;;;;5075993;28;20122;-67
2021/12/13 03:18:56;;;;;;;1.00;1.00;;;3.90;99.90;;;;;;5058277;28;20029;-67
2021/12/13 03:21:33;;;;;;;1.13;1.02;;;3.90;99.90;;;;;;5076646;28;20103;-67
2021/12/13 03:24:40;;;;;;;1.02;0.75;;;3.90;99.90;;;;;;5076297;28;20040;-67
2021/12/13 03:27:29;;;;;;;0.73;0.73;;;3.90;99.90;;;;;;4974949;28;20034;-68
2021/12/13 03:30:04;;;;;;;;;;;3.80;99.90;;;;;;5071771;28;20503;-68
2021/12/13 03:32:44;;;;;;;0.80;0.75;;;3.80;99.90;;;;;;5075814;28;19916;-68
2021/12/13 03:35:36;;;;;;;0.63;0.60;;;3.80;99.90;;;;;;5076423;28;20045;-67
2021/12/13 03:38:26;;;;;;;1.40;0.70;;;3.80;99.90;;;;;;5057659;28;20033;-67
2021/12/13 03:40:56;;;;;;;0.40;0.40;;;3.80;99.90;;;;;;5076464;28;20025;-67
2021/12/13 03:43:39;;;;;;;1.55;0.50;;;3.80;99.90;;;;;;5075178;28;20090;-67
2021/12/13 03:46:10;;;;;;;0.90;0.88;;;3.70;99.90;;;;;;5075503;28;20090;-68
2021/12/13 03:48:37;;;;;;;0.68;0.60;;;3.70;99.90;;;;;;5075468;28;20027;-67
2021/12/13 03:51:16;;;;;;;1.23;0.68;;;3.70;99.90;;;;;;5075604;28;20476;-67
2021/12/13 03:53:44;;;;;;;0.75;0.75;;;3.70;99.90;;;;;;5075642;28;20028;-68
2021/12/13 03:56:19;;;;;;;1.45;0.90;;;3.70;99.90;;;;;;5057660;28;20032;-68
2021/12/13 03:58:52;;;;;;;0.60;0.60;;;3.60;99.90;;;;;;5075590;28;20032;-68
2021/12/13 04:01:43;;;;;;;0.82;0.68;;;3.70;99.90;;;;;;5075606;28;20099;-68
2021/12/13 04:04:13;;;;;;;0.50;0.40;;;3.60;99.90;;;;;;5074374;28;20036;-68
2021/12/13 04:06:49;;;;;;;0.40;0.40;;;3.60;99.90;;;;;;5075511;28;20039;-68
2021/12/13 04:09:16;;;;;;;1.38;1.10;;;3.60;99.90;;;;;;5075375;28;20098;-68
2021/12/13 04:11:44;;;;;;;0.50;0.50;;;3.60;99.90;;;;;;5075227;28;20033;-68
2021/12/13 04:14:20;;;;;;;0.65;0.60;;;3.60;99.90;;;;;;5075150;28;20031;-68
2021/12/13 04:17:06;;;;;;;1.38;0.95;;;3.60;99.90;;;;;;5075134;28;20056;-68
2021/12/13 04:19:56;;;;;;;1.05;0.95;;;3.60;99.90;;;;;;5075403;28;20024;-68
2021/12/13 04:22:26;;;;;;;1.13;1.02;;;3.70;99.90;;;;;;5074993;28;20457;-68
2021/12/13 04:24:59;;;;;;;1.00;0.90;;;3.70;99.90;;;;;;5074988;28;20024;-68
2021/12/13 04:27:30;;;;;;;1.17;0.90;;;3.70;99.90;;;;;;5057840;28;20029;-68
2021/12/13 04:30:07;;;;;;;2.58;1.08;;;3.80;99.90;;;;;;5075162;28;20055;-68
2021/12/13 04:32:37;;;;;;;1.70;1.00;;;3.80;99.90;;;;;;5074704;28;20044;-68
2021/12/13 04:37:56;;;;;;;2.78;0.93;;;3.80;99.90;;;;;;5074478;28;20086;-68
2021/12/13 04:40:27;;;;;;;1.00;0.90;;;3.80;99.90;;;;;;5074322;28;20025;-69
2021/12/13 04:43:09;;;;;;;0.95;0.60;;;3.80;99.90;;;;;;5056586;28;20511;-68
2021/12/13 04:45:36;;;;;;;1.17;1.05;;;3.80;99.90;;;;;;5057308;28;20032;-68
2021/12/13 04:48:07;;;;;;;3.10;0.90;;;3.80;99.90;;;;;;5074405;28;20383;-68
2021/12/13 04:50:47;;;;;;;1.08;0.88;;;3.80;99.90;;;;;;5074458;28;20052;-68
2021/12/13 04:53:47;;;;;;;1.20;0.90;;;3.90;99.90;;;;;;5056548;28;20423;-68
2021/12/13 04:56:21;;;;;;;1.38;0.98;;;3.90;99.90;;;;;;5050717;28;20464;-68
2021/12/13 04:58:49;;;;;;;1.17;0.90;;;3.90;99.90;;;;;;5074348;28;20027;-68
2021/12/13 05:01:17;;;;;;;1.05;1.02;;;3.90;99.90;;;;;;5074220;28;20028;-68
2021/12/13 05:03:58;;;;;;;1.17;1.08;;;3.90;99.90;;;;;;5073949;28;20024;-69
2021/12/13 05:06:34;;;;;;;1.20;1.10;;;3.90;99.90;;;;;;5074204;28;20056;-69
2021/12/13 05:09:05;;;;;;;1.20;1.10;;;3.90;99.90;;;;;;5074483;28;20032;-68
2021/12/13 05:11:35;;;;;;;3.78;0.75;;;3.90;99.90;;;;;;5056227;28;20376;-69
2021/12/13 05:14:03;;;;;;;1.85;1.20;;;3.90;99.90;;;;;;5074465;28;20063;-68
2021/12/13 05:16:50;;;;;;;0.88;0.88;;;4.00;99.90;;;;;;5074066;28;20056;-68
2021/12/13 05:19:29;;;;;;;1.02;0.90;;;4.00;99.90;;;;;;5055935;28;20060;-68
2021/12/13 05:21:56;;;;;;;1.00;0.95;;;3.90;99.90;;;;;;5056553;28;20040;-69
2021/12/13 05:24:27;;;;;;;1.95;0.98;;;3.90;99.90;;;;;;5073772;28;20081;-68
2021/12/13 05:27:00;;;;;;;1.08;0.80;;;3.90;99.90;;;;;;5056135;28;20389;-69
2021/12/13 05:29:31;;;;;;;1.40;1.10;;;3.90;99.90;;;;;;5074168;28;20024;-69
2021/12/13 05:32:08;;;;;;;1.40;0.70;;;4.00;99.90;;;;;;5074066;28;20048;-70
2021/12/13 05:34:38;;;;;;;1.27;1.17;;;3.90;99.90;;;;;;5073728;28;20399;-69
2021/12/13 05:37:06;;;;;;;0.93;0.93;;;3.90;99.90;;;;;;5073737;28;20102;-69
2021/12/13 05:39:33;;;;;;;1.37;1.27;;;3.90;99.90;;;;;;5055804;28;20095;-68
2021/12/13 05:42:11;;;;;;;1.00;0.90;;;3.90;99.90;;;;;;5073692;28;20036;-69
2021/12/13 05:44:43;;;;;;;2.17;1.30;;;3.90;99.90;;;;;;5073775;28;20048;-68
2021/12/13 05:47:23;;;;;;;0.90;0.90;;;3.90;99.90;;;;;;5073689;28;20020;-69
2021/12/13 05:49:50;;;;;;;1.10;0.95;;;3.90;99.90;;;;;;5073658;28;20017;-69
2021/12/13 05:52:19;;;;;;;1.17;1.00;;;3.90;99.90;;;;;;5055391;28;20032;-69
2021/12/13 05:54:56;;;;;;;0.85;0.85;;;3.90;99.90;;;;;;5073630;28;20021;-69
2021/12/13 05:57:32;;;;;;;1.45;1.25;;;3.90;99.90;;;;;;5073587;28;20046;-69
2021/12/13 06:00:31;;;;;;;2.08;1.65;;;3.90;99.90;;;;;;5055587;28;20029;-69
2021/12/13 06:03:03;;;;;;;;;;;3.80;99.90;;;;;;5073997;28;20051;-71
2021/12/13 06:05:42;;;;;;;1.27;1.08;;;3.80;99.90;;;;;;5056280;28;19904;-71
2021/12/13 06:08:12;;;;;;;1.88;1.35;;;3.80;99.90;;;;;;5058790;28;20021;-70
2021/12/13 06:10:47;;;;;;;2.40;1.60;;;3.80;99.90;;;;;;5076820;28;20031;-70
2021/12/13 06:13:41;;;;;;;1.50;1.35;;;3.80;99.90;;;;;;5059564;28;20035;-70
2021/12/13 06:16:07;;;;;;;1.30;1.20;;;3.80;99.90;;;;;;5059287;28;20063;-69
2021/12/13 06:18:43;;;;;;;2.78;1.45;;;3.80;99.90;;;;;;5077318;28;20028;-69
2021/12/13 06:21:12;;;;;;;3.05;1.48;;;3.80;99.90;;;;;;5058887;28;20060;-70
2021/12/13 06:23:38;;;;;;;1.60;1.40;;;3.80;99.90;;;;;;5076844;28;20033;-70
2021/12/13 06:26:06;;;;;;;1.60;1.50;;;3.80;99.90;;;;;;5077143;28;20071;-71
2021/12/13 06:28:44;;;;;;;1.83;1.35;;;3.80;99.90;;;;;;5077036;28;20031;-70
2021/12/13 06:31:18;;;;;;;1.30;1.13;;;3.80;99.90;;;;;;5076686;28;20048;-70
2021/12/13 06:33:49;;;;;;;2.10;1.85;;;3.80;99.90;;;;;;5077312;28;20040;-70
2021/12/13 06:36:26;;;;;;;1.20;1.10;;;3.80;99.90;;;;;;5077107;28;20051;-70
2021/12/13 06:38:55;;;;;;;2.03;1.65;;;3.80;99.90;;;;;;5077012;28;20107;-70
2021/12/13 06:41:27;;;;;;;2.92;1.63;;;3.80;99.90;;;;;;5059305;28;20388;-69
2021/12/13 06:43:54;;;;;;;1.58;1.25;;;3.80;99.90;;;;;;5059169;28;20039;-69
2021/12/13 06:46:23;;;;;;;3.95;2.20;;;3.80;99.90;;;;;;5058828;28;20028;-69
2021/12/13 06:49:01;;;;;;;2.40;1.67;;;3.80;99.90;;;;;;5058746;28;20487;-70
2021/12/13 06:51:48;;;;;;;2.40;1.88;;;3.80;99.90;;;;;;5077042;28;20372;-70
2021/12/13 06:54:29;;;;;;;2.42;2.17;;;3.80;99.90;;;;;;5076973;28;20028;-69
2021/12/13 06:57:15;;;;;;;2.97;2.45;;;3.90;99.90;;;;;;5076811;28;20048;-69
2021/12/13 06:59:49;;;;;;;3.67;3.25;;;3.90;99.90;;;;;;5058192;28;20036;-69
2021/12/13 07:02:19;;;;;;;4.20;2.88;;;3.90;99.90;;;;;;5058464;28;20086;-70
2021/12/13 07:04:50;;;;;;;4.13;3.15;;;3.90;99.90;;;;;;5058625;28;20357;-69
2021/12/13 07:07:18;;;;;;;9.68;2.97;;;3.90;99.90;;;;;;5058603;28;20067;-69
2021/12/13 07:10:03;;;;;;;2.60;2.40;;;3.90;99.90;;;;;;5076335;28;20028;-70
2021/12/13 07:12:31;;;;;;;7.72;3.63;;;3.90;99.90;;;;;;5076216;28;20024;-69
2021/12/13 07:14:58;;;;;;;3.83;3.08;;;3.90;99.90;;;;;;5058694;28;20024;-69
2021/12/13 07:17:31;;;;;;;5.47;3.25;;;3.90;99.90;;;;;;5058413;28;20380;-69
2021/12/13 07:19:59;;;;;;;3.85;3.10;;;3.90;99.90;;;;;;5075496;28;20357;-69
2021/12/13 07:22:29;;;;;;;4.32;3.08;;;3.90;99.90;;;;;;5076604;28;20043;-69
2021/12/13 07:25:07;;;;;;;7.13;3.60;;;3.90;99.90;;;;;;5058268;28;20063;-69
2021/12/13 07:27:40;;;;;;;3.35;3.00;;;3.90;99.90;;;;;;5076159;28;20058;-69
2021/12/13 07:30:11;;;;;;;4.38;3.58;;;3.90;99.90;;;;;;5075839;28;20017;-70
2021/12/13 07:32:45;;;;;;;3.97;3.22;;;3.90;99.90;;;;;;5057329;28;20041;-69
2021/12/13 07:35:22;;;;;;;4.57;3.53;;;3.90;99.90;;;;;;5057677;28;20036;-70
2021/12/13 07:38:08;;;;;;;6.43;3.28;;;3.90;99.90;;;;;;5076298;28;20473;-69
2021/12/13 07:40:45;;;;;;;6.13;3.63;;;3.90;99.90;;;;;;5076084;28;20059;-69
2021/12/13 07:43:38;;;;;;;5.35;3.35;;;3.90;99.90;;;;;;5075372;28;20464;-69
2021/12/13 07:46:21;;;;;;;5.28;3.63;;;3.90;99.90;;;;;;5075603;28;20024;-69
2021/12/13 07:48:47;;;;;;;5.38;3.40;;;4.00;99.90;;;;;;5057841;28;20025;-68
2021/12/13 07:51:15;;;;;;;3.20;2.40;;;4.00;99.90;;;;;;5075313;28;20024;-68
2021/12/13 07:53:48;;;;;;;3.53;2.30;;;4.00;99.90;;;;;;5057862;28;20431;-68
2021/12/13 07:56:24;;;;;;;6.53;1.95;;;4.00;99.90;;;;;;5075475;28;20469;-68
2021/12/13 07:58:58;;;;;;;4.25;2.05;;;4.00;99.90;;;;;;5075479;28;20024;-69
2021/12/13 08:01:27;;;;;;;5.20;2.70;;;4.00;99.90;;;;;;5075304;28;20037;-68
2021/12/13 08:03:57;;;;;;;;;;;4.00;99.90;;;;;;5076169;28;20020;-68
2021/12/13 08:06:47;;;;;;;2.88;1.75;;;4.00;99.90;;;;;;5075073;28;20391;-68
2021/12/13 08:09:17;;;;;;;1.83;1.67;;;4.00;99.90;;;;;;5075256;28;20233;-68
2021/12/13 08:11:52;;;;;;;2.53;1.67;;;4.10;99.90;;;;;;5057279;28;20025;-68
2021/12/13 08:14:31;;;;;;;2.15;1.60;;;4.10;99.90;;;;;;5075838;28;20050;-68
2021/12/13 08:17:11;;;;;;;2.05;1.60;;;4.10;99.90;;;;;;5074727;28;20465;-68
2021/12/13 08:19:37;;;;;;;2.35;1.40;;;4.10;99.90;;;;;;5057086;28;20090;-68
2021/12/13 08:22:10;;;;;;;2.60;1.65;;;4.10;99.90;;;;;;5075146;28;20036;-68
2021/12/13 08:24:46;;;;;;;3.45;2.03;;;4.10;99.90;;;;;;5057069;28;20028;-68
2021/12/13 08:27:49;;;;;;;1.58;1.48;;;4.10;99.90;;;;;;5056962;28;20452;-68
2021/12/13 08:30:21;;;;;;;2.03;1.73;;;4.10;99.90;;;;;;5061263;28;20036;-69
2021/12/13 08:33:10;;;;;;;3.90;1.83;;;4.10;99.90;;;;;;5056815;28;20029;-68
2021/12/13 08:36:10;;;;;;;1.50;1.40;;;4.10;99.90;;;;;;5075344;28;20075;-68
2021/12/13 08:39:12;;;;;;;2.53;1.50;;;4.10;99.90;;;;;;5056840;28;20040;-68
2021/12/13 08:41:40;;;;;;;2.53;1.33;;;4.20;99.90;;;;;;5019159;28;20079;-68
2021/12/13 08:44:12;;;;;;;2.10;1.83;;;4.20;99.90;;;;;;5074560;28;20526;-68
2021/12/13 08:46:56;;;;;;;6.80;1.83;;;4.20;99.90;;;;;;5074483;28;20032;-67
2021/12/13 08:49:31;;;;;;;3.47;1.73;;;4.20;99.90;;;;;;5074666;28;20024;-67
2021/12/13 08:55:12;;;;;;;1.80;1.25;;;4.20;99.90;;;;;;5074912;28;20028;-67
2021/12/13 08:57:37;;;;;;;2.08;1.77;;;4.20;99.90;;;;;;5074923;28;20028;-68
2021/12/13 09:00:46;;;;;;;2.30;1.83;;;4.20;99.90;;;;;;5057283;28;20028;-68
2021/12/13 09:03:12;;;;;;;2.10;1.58;;;4.20;99.90;;;;;;5024054;28;20408;-68
2021/12/13 09:06:00;;;;;;;5.85;2.00;;;4.20;99.90;;;;;;5074072;28;20020;-68
2021/12/13 09:08:39;;;;;;;1.85;1.52;;;4.20;99.90;;;;;;5056127;28;20032;-68
2021/12/13 09:11:33;;;;;;;3.42;1.38;;;4.30;99.90;;;;;;5074419;28;20373;-67
2021/12/13 09:14:21;;;;;;;2.90;1.83;;;4.20;99.90;;;;;;5055890;28;20032;-67
2021/12/13 09:17:07;;;;;;;3.58;1.48;;;4.30;99.90;;;;;;5074112;28;20032;-67
2021/12/13 09:19:48;;;;;;;1.80;1.60;;;4.30;99.90;;;;;;5056647;28;20020;-76
2021/12/13 09:22:13;;;;;;;2.72;1.40;;;4.30;99.90;;;;;;5055736;28;20046;-67
2021/12/13 09:24:56;;;;;;;2.25;1.63;;;4.40;99.90;;;;;;5055958;28;20024;-67
2021/12/13 09:27:36;;;;;;;5.20;1.90;;;4.40;99.90;;;;;;5074166;28;20027;-67
2021/12/13 09:30:17;;;;;;;2.08;1.52;;;4.40;99.90;;;;;;5073652;28;20032;-67
2021/12/13 09:33:11;;;;;;;1.85;1.40;;;4.40;99.90;;;;;;5073982;28;20033;-67
2021/12/13 09:35:48;;;;;;;2.13;1.50;;;4.50;99.90;;;;;;5073927;28;20054;-68
2021/12/13 09:38:38;;;;;;;2.30;1.45;;;4.50;99.90;;;;;;5074210;28;20032;-68
2021/12/13 09:41:24;;;;;;;7.30;1.58;;;4.50;99.90;;;;;;5073509;28;20037;-68
2021/12/13 09:43:55;;;;;;;1.83;1.42;;;4.50;99.90;;;;;;5055268;28;20029;-68
2021/12/13 09:46:33;;;;;;;1.95;1.40;;;4.60;99.90;;;;;;5073639;28;20029;-68
2021/12/13 09:49:01;;;;;;;2.05;1.48;;;4.60;99.90;;;;;;5056123;28;20025;-67
2021/12/13 09:51:51;;;;;;;2.05;1.20;;;4.60;99.90;;;;;;5073789;28;20032;-67
2021/12/13 09:54:20;;;;;;;1.13;1.08;;;4.60;99.90;;;;;;5073660;28;20036;-67
2021/12/13 09:56:49;;;;;;;1.35;1.25;;;4.70;99.90;;;;;;5073415;28;20041;-67
2021/12/13 09:59:21;;;;;;;1.25;0.90;;;4.70;99.90;;;;;;5073792;28;20151;-67
2021/12/13 10:01:47;;;;;;;1.67;1.23;;;4.70;99.90;;;;;;5055467;28;20060;-68
2021/12/13 10:04:39;;;;;;;3.03;1.55;;;4.70;99.90;;;;;;5073530;28;20025;-67
2021/12/13 10:07:12;;;;;;;1.63;1.15;;;4.70;99.90;;;;;;5068394;28;20387;-68
2021/12/13 10:09:47;;;;;;;1.13;1.02;;;4.70;99.90;;;;;;5055888;28;20099;-68
2021/12/13 10:12:21;;;;;;;1.45;1.17;;;4.70;99.90;;;;;;5073157;28;20434;-67
2021/12/13 10:15:09;;;;;;;1.65;1.20;;;4.70;99.90;;;;;;5055743;28;20020;-68
2021/12/13 10:17:39;;;;;;;1.27;1.02;;;4.70;99.90;;;;;;5073522;28;20364;-67
2021/12/13 10:20:19;;;;;;;3.70;1.00;;;4.70;99.90;;;;;;5073343;28;20032;-67
2021/12/13 10:22:46;;;;;;;0.90;0.90;;;4.70;99.90;;;;;;5073615;28;20029;-67
2021/12/13 10:25:20;;;;;;;1.65;1.30;;;4.70;99.90;;;;;;5073316;28;20036;-67
2021/12/13 10:27:46;;;;;;;3.45;1.15;;;4.70;99.90;;;;;;5073370;28;20025;-68
2021/12/13 10:30:21;;;;;;;1.92;1.17;;;4.70;99.90;;;;;;5073082;28;20028;-68
2021/12/13 10:32:47;;;;;;;2.03;1.40;;;4.70;99.90;;;;;;5073679;28;20033;-68
2021/12/13 10:35:17;;;;;;;1.20;1.10;;;4.70;99.90;;;;;;5073595;28;20029;-68
2021/12/13 10:37:56;;;;;;;0.80;0.80;;;4.60;99.90;;;;;;5073184;28;20082;-67
2021/12/13 10:40:26;;;;;;;0.90;0.90;;;4.70;99.90;;;;;;5055063;28;20469;-68
2021/12/13 10:43:06;;;;;;;1.45;1.02;;;4.70;99.90;;;;;;5055233;28;20480;-67
2021/12/13 10:45:40;;;;;;;2.70;1.08;;;4.70;99.90;;;;;;5073304;28;20041;-68
2021/12/13 10:48:09;;;;;;;2.60;1.10;;;4.70;99.90;;;;;;5073237;28;20017;-67
2021/12/13 10:50:44;;;;;;;1.23;1.13;;;4.70;99.90;;;;;;5073421;28;20029;-67
2021/12/13 10:53:12;;;;;;;2.17;1.10;;;4.70;99.90;;;;;;5072517;28;20032;-67
2021/12/13 10:55:44;;;;;;;1.10;1.10;;;4.70;99.90;;;;;;5076414;28;20078;-68
2021/12/13 10:58:14;;;;;;;1.17;1.08;;;4.70;99.90;;;;;;5076735;28;20033;-67
2021/12/13 11:00:44;;;;;;;3.10;1.55;;;4.70;99.90;;;;;;5076600;28;20027;-68
2021/12/13 11:03:13;;;;;;;1.27;1.17;;;4.70;99.90;;;;;;5058583;28;20040;-68
2021/12/13 11:05:40;;;;;;;1.90;1.25;;;4.70;99.90;;;;;;5076467;28;20029;-68
2021/12/13 11:08:09;;;;;;;1.60;0.98;;;4.70;99.90;;;;;;5076669;28;20464;-68
2021/12/13 11:10:53;;;;;;;1.63;1.20;;;4.70;99.90;;;;;;5058483;28;20044;-68
2021/12/13 11:13:22;;;;;;;1.25;1.08;;;4.70;99.90;;;;;;5076435;28;20041;-68
2021/12/13 11:15:52;;;;;;;1.45;1.27;;;4.70;99.90;;;;;;5076275;28;20024;-68
2021/12/13 11:18:27;;;;;;;1.77;1.30;;;4.80;99.90;;;;;;5058281;28;20032;-68
2021/12/13 11:21:01;;;;;;;2.95;1.38;;;4.80;99.90;;;;;;5076415;28;20086;-68
2021/12/13 11:23:28;;;;;;;1.45;1.10;;;4.80;99.90;;;;;;5076154;28;20087;-68
2021/12/13 11:26:04;;;;;;;1.50;1.10;;;4.80;99.90;;;;;;5076251;28;20036;-68
2021/12/13 11:28:32;;;;;;;1.35;1.25;;;4.80;99.90;;;;;;5076368;28;20032;-68
2021/12/13 11:31:07;;;;;;;1.83;1.10;;;4.80;99.90;;;;;;5075538;28;20044;-68
2021/12/13 11:33:39;;;;;;;1.10;0.93;;;4.80;99.90;;;;;;5076012;28;20032;-68
2021/12/13 11:36:07;;;;;;;0.80;0.80;;;4.80;99.90;;;;;;5075902;28;20115;-68
2021/12/13 11:39:04;;;;;;;0.82;0.82;;;4.80;99.90;;;;;;5075828;28;20079;-68
2021/12/13 11:41:37;;;;;;;1.60;1.10;;;4.80;99.90;;;;;;5075690;28;20024;-67
2021/12/13 11:44:45;;;;;;;1.73;0.90;;;4.80;99.90;;;;;;5075599;28;20457;-68
2021/12/13 11:47:29;;;;;;;1.20;1.10;;;4.70;99.90;;;;;;5062098;28;20041;-67
2021/12/13 11:50:24;;;;;;;3.00;1.25;;;4.80;99.90;;;;;;5075554;28;20056;-67
2021/12/13 11:52:58;;;;;;;0.73;0.73;;;4.80;99.90;;;;;;5070487;28;20047;-68
2021/12/13 11:55:51;;;;;;;2.67;1.40;;;4.80;99.90;;;;;;5075390;28;20056;-67
2021/12/13 11:58:54;;;;;;;1.02;0.90;;;4.70;99.90;;;;;;5075179;28;20032;-67
2021/12/13 12:01:43;;;;;;;3.90;1.52;;;4.70;99.90;;;;;;5075047;28;20410;-67
2021/12/13 12:04:28;;;;;;;;;;;4.70;99.90;;;;;;5057660;28;20498;-68
2021/12/13 12:07:30;;;;;;;1.45;1.17;;;4.70;99.90;;;;;;5075394;28;19946;-67
2021/12/13 12:10:36;;;;;;;0.80;0.80;;;4.70;99.90;;;;;;5057259;28;20094;-67
2021/12/13 12:13:37;;;;;;;0.68;0.68;;;4.80;99.90;;;;;;5019774;28;20076;-67
2021/12/13 12:16:04;;;;;;;1.05;0.93;;;4.80;99.90;;;;;;5075434;28;20037;-67
2021/12/13 12:18:34;;;;;;;5.35;1.13;;;4.80;99.90;;;;;;5075044;28;20027;-67
2021/12/13 12:21:30;;;;;;;1.25;1.15;;;4.80;99.90;;;;;;5075486;28;20021;-67
2021/12/13 12:24:03;;;;;;;1.55;0.85;;;4.70;99.90;;;;;;5075191;28;20029;-67
2021/12/13 12:26:50;;;;;;;7.40;1.70;;;4.80;99.90;;;;;;5074667;28;20024;-67
2021/12/13 12:29:20;;;;;;;1.13;1.02;;;4.80;99.90;;;;;;5074685;28;20396;-67
2021/12/13 12:31:55;;;;;;;2.08;1.25;;;4.80;99.90;;;;;;5082667;28;20040;-67
2021/12/13 12:34:21;;;;;;;5.47;0.98;;;4.80;99.90;;;;;;5093845;28;20093;-67
2021/12/13 12:37:11;;;;;;;5.38;1.30;;;4.80;99.90;;;;;;5093743;28;20444;-68
2021/12/13 12:40:05;;;;;;;3.22;1.88;;;4.80;99.90;;;;;;5095359;28;20077;-67
2021/12/13 12:42:42;;;;;;;1.45;1.35;;;4.80;99.90;;;;;;5095137;28;20032;-67
2021/12/13 12:45:13;;;;;;;1.77;1.15;;;4.80;99.90;;;;;;5094932;28;20077;-67
2021/12/13 12:47:51;;;;;;;2.42;1.27;;;4.80;99.90;;;;;;5094796;28;20472;-67
2021/12/13 12:50:32;;;;;;;7.50;1.52;;;4.80;99.90;;;;;;5094627;28;20031;-67
2021/12/13 12:53:02;;;;;;;1.15;1.10;;;4.80;99.90;;;;;;5095057;28;20073;-67
2021/12/13 12:55:40;;;;;;;0.88;0.80;;;4.80;99.90;;;;;;5094904;28;20108;-67
2021/12/13 12:58:14;;;;;;;1.50;0.80;;;4.80;99.90;;;;;;5094699;28;20027;-67
2021/12/13 13:00:41;;;;;;;2.63;1.27;;;4.80;99.90;;;;;;5094650;28;20024;-67
2021/12/13 13:03:12;;;;;;;2.03;1.35;;;4.80;99.90;;;;;;5094203;28;20387;-67
2021/12/13 13:05:38;;;;;;;1.88;1.15;;;4.80;99.90;;;;;;5094769;28;20032;-67
2021/12/13 13:08:05;;;;;;;3.45;1.08;;;4.80;99.90;;;;;;5094690;28;20357;-66
2021/12/13 13:13:02;;;;;;;1.70;1.00;;;4.70;99.90;;;;;;5094438;28;20028;-67
2021/12/13 13:15:35;;;;;;;3.50;1.75;;;4.70;99.90;;;;;;5094287;28;20020;-66
2021/12/13 13:18:05;;;;;;;2.42;1.60;;;4.80;99.90;;;;;;5092239;28;20035;-67
2021/12/13 13:20:38;;;;;;;3.17;1.60;;;4.70;99.90;;;;;;5094230;28;20020;-67
2021/12/13 13:23:05;;;;;;;7.07;1.98;;;4.70;99.90;;;;;;5094240;28;20040;-67
2021/12/13 13:25:37;;;;;;;2.40;1.95;;;4.70;99.90;;;;;;5094157;28;20499;-66
2021/12/13 13:28:14;;;;;;;1.95;1.33;;;4.70;99.90;;;;;;5093807;28;20426;-67
2021/12/13 13:31:05;;;;;;;3.17;1.65;;;4.70;99.90;;;;;;5088354;28;20045;-67
2021/12/13 13:33:32;;;;;;;1.50;1.40;;;4.70;99.90;;;;;;5073683;28;20358;-67
2021/12/13 13:35:58;;;;;;;1.92;1.05;;;4.70;99.90;;;;;;5055783;28;20028;-67
2021/12/13 13:38:24;;;;;;;1.67;1.15;;;4.70;99.90;;;;;;5074057;28;20460;-67
2021/12/13 13:40:50;;;;;;;1.58;1.17;;;4.70;99.90;;;;;;5073782;28;20150;-67
2021/12/13 13:43:18;;;;;;;2.65;1.35;;;4.70;99.90;;;;;;5055648;28;20046;-67
2021/12/13 13:45:53;;;;;;;0.90;0.90;;;4.70;99.90;;;;;;5055704;28;20025;-68
2021/12/13 13:48:28;;;;;;;1.17;1.00;;;4.70;99.90;;;;;;5073829;28;20027;-68
2021/12/13 13:50:57;;;;;;;1.15;1.05;;;4.70;99.90;;;;;;5073771;28;20039;-67
2021/12/13 13:53:23;;;;;;;;;;;4.70;99.90;;;;;;5074305;28;20027;-67
2021/12/13 13:55:51;;;;;;;3.53;1.60;;;4.70;99.90;;;;;;5073574;28;20272;-66
2021/12/13 13:58:23;;;;;;;2.00;1.57;;;4.70;99.90;;;;;;5073614;28;20029;-67